KEWB

New Bedford Regional Airport

New Bedford, Massachusetts, USA
METAR KEWB 170553Z AUTO 30004KT 10SM CLR M06/M11 A3018 RMK AO2 SLP219 T10561106 11006 21056 51016
Observed Flight Rules
Dec-17 @ 05:53 UTC (27 minutes ago) Visual Flight Rules
Wind Visibility Clouds
300° at 4 knots 10 miles
  • Clear skies
Temperatures Readings
Current -6°C / 21°F
Dewpoint -11°C / 12°F
Humidity 68%
Altimeter 30.18" Hg
Pressure 1021.9 hPa
Elevation 23
METAR KEWB 170553Z AUTO 30004KT 10SM CLR M06/M11 A3018 RMK AO2 SLP219 T10561106 11006 21056 51016
Observed Flight Rules
Dec-17 @ 05:53 UTC
(27 minutes ago)
VFR
Wind Visibility
300° at 4 knots 10 miles
Clouds
  • Clear skies
Temperature Dewpoint
-6°C / 21°F -11°C / 12°F
Humidity Altimeter Pressure
68% 30.18" Hg 1021.9 hPa